Time;durP1;ratioP1;P1;durP2;ratioP2;P2;SDS_P1;SDS_P2;PMS_P1;PMS_P2;Temp;Humidity;BMP_temperature;BMP_pressure;BME280_temperature;BME280_humidity;BME280_pressure;Samples;Min_cycle;Max_cycle;Signal;HPM_P1;HPM_P2
2023/01/25 00:02:07;;;;;;;;;55.25;46.00;;;;;-146.44;100.00;58906.56;5067603;27;47013;-55
2023/01/25 00:04:32;;;;;;;;;49.75;40.75;;;;;-146.44;100.00;58906.56;5072817;27;45520;-53
2023/01/25 00:06:58;;;;;;;;;47.75;40.75;;;;;-146.44;100.00;58906.56;5071700;28;46159;-56
2023/01/25 00:09:24;;;;;;;;;49.75;41.75;;;;;-146.44;100.00;58906.56;5072736;27;45427;-55
2023/01/25 00:11:51;;;;;;;;;45.75;39.75;;;;;-146.44;100.00;58906.56;5067990;27;46212;-52
2023/01/25 00:14:17;;;;;;;;;54.00;44.50;;;;;-146.44;100.00;58906.56;5070985;27;45499;-55
2023/01/25 00:16:43;;;;;;;;;60.75;44.00;;;;;-146.44;100.00;58906.56;5072631;27;45492;-55
2023/01/25 00:19:10;;;;;;;;;54.75;44.50;;;;;-146.44;100.00;58906.56;5069091;27;46161;-51
2023/01/25 00:21:36;;;;;;;;;54.50;45.50;;;;;-146.44;100.00;58906.56;5072530;27;46405;-54
2023/01/25 00:24:04;;;;;;;;;50.00;42.25;;;;;-146.44;100.00;58906.56;5065935;28;45570;-56
2023/01/25 00:26:30;;;;;;;;;53.75;43.75;;;;;-146.44;100.00;58906.56;5064356;27;45601;-54
2023/01/25 00:28:56;;;;;;;;;49.25;41.00;;;;;-146.44;100.00;58906.56;5072546;28;45453;-53
2023/01/25 00:31:35;;;;;;;;;55.75;41.50;;;;;-146.44;100.00;58906.56;5073791;27;46272;-55
2023/01/25 00:34:25;;;;;;;;;50.50;42.25;;;;;-146.44;100.00;58906.56;5061930;28;45694;-54
2023/01/25 00:36:56;;;;;;;;;47.50;40.75;;;;;-146.44;100.00;58906.56;5064968;27;45476;-54
2023/01/25 00:39:22;;;;;;;;;52.50;44.75;;;;;-146.44;100.00;58906.56;5076129;28;45485;-55
2023/01/25 00:41:49;;;;;;;;;57.50;43.50;;;;;-146.44;100.00;58906.56;5073821;28;46389;-55
2023/01/25 00:44:14;;;;;;;;;47.25;41.75;;;;;-146.44;100.00;58906.56;5064318;27;45558;-54
2023/01/25 00:46:39;;;;;;;;;56.25;41.75;;;;;-146.44;100.00;58906.56;5061605;28;45598;-54
2023/01/25 00:49:06;;;;;;;;;53.75;44.50;;;;;-146.44;100.00;58906.56;5074488;27;45469;-53
2023/01/25 00:51:31;;;;;;;;;50.75;42.25;;;;;-146.44;100.00;58906.56;5073459;27;46394;-56
2023/01/25 00:53:57;;;;;;;;;50.00;41.25;;;;;-146.44;100.00;58906.56;5075629;27;45546;-53
2023/01/25 00:56:22;;;;;;;;;54.25;45.25;;;;;-146.44;100.00;58906.56;5075923;27;45479;-55
2023/01/25 00:58:48;;;;;;;;;45.75;37.25;;;;;-146.44;100.00;58906.56;5075806;27;45581;-54
2023/01/25 01:01:13;;;;;;;;;58.00;45.00;;;;;-146.44;100.00;58906.56;5070655;28;45491;-56
2023/01/25 01:03:40;;;;;;;;;45.25;37.75;;;;;-146.44;100.00;58906.56;5075501;27;45465;-54
2023/01/25 01:06:11;;;;;;;;;48.50;40.00;;;;;-146.44;100.00;58906.56;5075319;27;45578;-54
2023/01/25 01:08:40;;;;;;;;;49.50;42.00;;;;;-146.44;100.00;58906.56;5074156;27;45466;-55
2023/01/25 01:11:09;;;;;;;;;43.00;38.25;;;;;-146.44;100.00;58906.56;5073734;27;46413;-55
2023/01/25 01:13:35;;;;;;;;;46.25;40.50;;;;;-146.44;100.00;58906.56;5072872;27;45527;-54
2023/01/25 01:16:02;;;;;;;;;43.00;38.25;;;;;-146.44;100.00;58906.56;5075735;27;45555;-56
2023/01/25 01:18:33;;;;;;;;;48.00;41.00;;;;;-146.44;100.00;58906.56;5074401;27;45571;-54
2023/01/25 01:20:59;;;;;;;;;50.75;41.50;;;;;-146.44;100.00;58906.56;5074201;27;45800;-55
2023/01/25 01:23:24;;;;;;;;;47.25;40.25;;;;;-146.44;100.00;58906.56;5071589;27;45429;-54
2023/01/25 01:25:51;;;;;;;;;50.00;41.25;;;;;-146.44;100.00;58906.56;5072407;27;45394;-56
2023/01/25 01:28:17;;;;;;;;;48.50;42.00;;;;;-146.44;100.00;58906.56;5075369;27;45487;-54
2023/01/25 01:30:43;;;;;;;;;46.25;42.00;;;;;-146.44;100.00;58906.56;5074975;27;45500;-55
2023/01/25 01:33:09;;;;;;;;;46.50;40.75;;;;;-146.44;100.00;58906.56;5068002;27;49887;-55
2023/01/25 01:35:35;;;;;;;;;44.75;40.00;;;;;-146.44;100.00;58906.56;5055324;28;45491;-53
2023/01/25 01:38:00;;;;;;;;;43.75;39.25;;;;;-146.44;100.00;58906.56;5073707;27;45572;-56
2023/01/25 01:40:26;;;;;;;;;45.00;39.75;;;;;-146.44;100.00;58906.56;5074956;27;45444;-55
2023/01/25 01:43:02;;;;;;;;;52.50;42.75;;;;;-146.44;100.00;58906.56;5073583;27;45528;-52
2023/01/25 01:45:46;;;;;;;;;47.75;40.00;;;;;-146.44;100.00;58906.56;5073942;27;45568;-54
2023/01/25 01:48:35;;;;;;;;;50.50;44.75;;;;;-146.44;100.00;58906.56;5073816;27;45448;-55
2023/01/25 01:51:18;;;;;;;;;48.00;40.00;;;;;-146.44;100.00;58906.56;5074583;28;47121;-53
2023/01/25 01:53:48;;;;;;;;;43.50;40.75;;;;;-146.44;100.00;58906.56;5062169;27;45449;-55
2023/01/25 01:56:19;;;;;;;;;52.25;42.00;;;;;-146.44;100.00;58906.56;5072028;27;45544;-55
2023/01/25 01:58:47;;;;;;;;;51.00;42.00;;;;;-146.44;100.00;58906.56;5062062;28;45446;-56
2023/01/25 02:01:13;;;;;;;;;50.00;41.75;;;;;-146.44;100.00;58906.56;5073802;27;46155;-53
2023/01/25 02:03:39;;;;;;;;;51.25;41.50;;;;;-146.44;100.00;58906.56;5074554;27;45505;-54
2023/01/25 02:06:15;;;;;;;;;48.75;41.25;;;;;-146.44;100.00;58906.56;5070662;27;45496;-55
2023/01/25 02:08:42;;;;;;;;;28.00;23.25;;;;;-146.44;100.00;58906.56;5074703;27;45552;-55
2023/01/25 02:11:09;;;;;;;;;55.25;42.00;;;;;-146.44;100.00;58906.56;5074355;27;45511;-55
2023/01/25 02:13:36;;;;;;;;;51.25;39.75;;;;;-146.44;100.00;58906.56;5074235;27;45564;-54
2023/01/25 02:16:02;;;;;;;;;48.00;40.50;;;;;-146.44;100.00;58906.56;5069774;27;45517;-56
2023/01/25 02:18:28;;;;;;;;;51.00;42.25;;;;;-146.44;100.00;58906.56;5073771;27;45448;-55
2023/01/25 02:20:57;;;;;;;;;49.00;43.00;;;;;-146.44;100.00;58906.56;5074345;27;45469;-54
2023/01/25 02:23:34;;;;;;;;;44.75;41.50;;;;;-146.44;100.00;58906.56;5069366;27;45417;-54
2023/01/25 02:26:02;;;;;;;;;55.25;41.50;;;;;-146.44;100.00;58906.56;5066780;27;45608;-55
2023/01/25 02:28:41;;;;;;;;;55.50;42.25;;;;;-146.44;100.00;58906.56;5074212;27;45489;-53
2023/01/25 02:31:07;;;;;;;;;50.00;42.00;;;;;-146.44;100.00;58906.56;5074015;27;46107;-55
2023/01/25 02:33:33;;;;;;;;;48.75;39.00;;;;;-146.44;100.00;58906.56;5063905;27;45654;-54
2023/01/25 02:36:12;;;;;;;;;56.50;44.50;;;;;-146.44;100.00;58906.56;5055919;28;45576;-56
2023/01/25 02:38:59;;;;;;;;;51.75;42.50;;;;;-146.44;100.00;58906.56;5073327;27;45440;-55
2023/01/25 02:41:33;;;;;;;;;50.50;38.50;;;;;-146.44;100.00;58906.56;5073356;27;46154;-56
2023/01/25 02:44:05;;;;;;;;;42.00;38.50;;;;;-146.44;100.00;58906.56;5072745;27;45438;-56
2023/01/25 02:46:34;;;;;;;;;46.25;42.00;;;;;-146.44;100.00;58906.56;5060241;27;45480;-54
2023/01/25 02:49:01;;;;;;;;;46.75;40.75;;;;;-146.44;100.00;58906.56;5073444;27;45500;-55
2023/01/25 02:51:28;;;;;;;;;57.50;44.50;;;;;-146.44;100.00;58906.56;5070953;28;47012;-55
2023/01/25 02:53:54;;;;;;;;;57.50;42.00;;;;;-146.44;100.00;58906.56;5073322;27;45541;-54
2023/01/25 02:56:20;;;;;;;;;49.25;40.50;;;;;-146.44;100.00;58906.56;5058437;27;45618;-55
2023/01/25 02:58:45;;;;;;;;;49.25;42.50;;;;;-146.44;100.00;58906.56;5073934;27;45513;-55
2023/01/25 03:01:12;;;;;;;;;49.75;43.25;;;;;-146.44;100.00;58906.56;5062760;27;45527;-54
2023/01/25 03:03:38;;;;;;;;;51.75;43.00;;;;;-146.44;100.00;58906.56;5073596;27;45540;-55
2023/01/25 03:06:04;;;;;;;;;51.00;42.50;;;;;-146.44;100.00;58906.56;5073511;27;45619;-54
2023/01/25 03:08:31;;;;;;;;;57.25;44.75;;;;;-146.44;100.00;58906.56;5066619;27;45518;-56
2023/01/25 03:10:58;;;;;;;;;56.75;42.25;;;;;-146.44;100.00;58906.56;5067445;27;46164;-55
2023/01/25 03:13:24;;;;;;;;;50.25;41.50;;;;;-146.44;100.00;58906.56;5073487;27;45503;-54
2023/01/25 03:15:49;;;;;;;;;50.50;41.50;;;;;-146.44;100.00;58906.56;5073589;27;45492;-56
2023/01/25 03:18:15;;;;;;;;;54.25;43.75;;;;;-146.44;100.00;58906.56;5073414;27;45526;-50
2023/01/25 03:20:40;;;;;;;;;47.50;41.00;;;;;-146.44;100.00;58906.56;5070052;27;45539;-52
2023/01/25 03:23:05;;;;;;;;;51.25;43.25;;;;;-146.44;100.00;58906.56;5073293;27;45626;-54
2023/01/25 03:25:31;;;;;;;;;47.75;38.00;;;;;-146.44;100.00;58906.56;5072940;27;45489;-53
2023/01/25 03:27:56;;;;;;;;;55.50;46.00;;;;;-146.44;100.00;58906.56;5073310;27;45549;-55
2023/01/25 03:30:21;;;;;;;;;40.50;38.25;;;;;-146.44;100.00;58906.56;5070324;27;47418;-55
2023/01/25 03:32:47;;;;;;;;;52.25;41.00;;;;;-146.44;100.00;58906.56;5072912;27;45414;-55
2023/01/25 03:35:12;;;;;;;;;47.50;41.25;;;;;-146.44;100.00;58906.56;5063432;27;45457;-54
2023/01/25 03:37:37;;;;;;;;;51.75;42.00;;;;;-146.44;100.00;58906.56;5069065;28;45681;-56
2023/01/25 03:40:03;;;;;;;;;48.75;40.50;;;;;-146.44;100.00;58906.56;5073205;27;45514;-53
2023/01/25 03:42:28;;;;;;;;;47.50;38.00;;;;;-146.44;100.00;58906.56;5057726;27;45941;-55
2023/01/25 03:44:54;;;;;;;;;47.75;42.50;;;;;-146.44;100.00;58906.56;5073232;27;45430;-55
2023/01/25 03:47:19;;;;;;;;;52.50;42.50;;;;;-146.44;100.00;58906.56;5072888;27;45573;-55
2023/01/25 03:49:44;;;;;;;;;55.50;42.25;;;;;-146.44;100.00;58906.56;5072836;27;45668;-55
2023/01/25 03:52:10;;;;;;;;;51.50;40.75;;;;;-146.44;100.00;58906.56;5073007;27;45613;-55
2023/01/25 03:54:35;;;;;;;;;53.75;43.25;;;;;-146.44;100.00;58906.56;5070912;27;45562;-53
2023/01/25 03:57:00;;;;;;;;;47.00;40.50;;;;;-146.44;100.00;58906.56;5073253;27;45632;-55
2023/01/25 03:59:26;;;;;;;;;56.00;42.50;;;;;-146.44;100.00;58906.56;5068831;27;52042;-55
2023/01/25 04:01:51;;;;;;;;;51.50;42.00;;;;;-146.44;100.00;58906.56;5071420;28;45436;-53
2023/01/25 04:04:17;;;;;;;;;55.00;43.50;;;;;-146.44;100.00;58906.56;5071124;28;45475;-54
2023/01/25 04:06:42;;;;;;;;;53.75;42.25;;;;;-146.44;100.00;58906.56;5071977;27;45513;-55
2023/01/25 04:09:08;;;;;;;;;54.75;45.50;;;;;-146.44;100.00;58906.56;5075333;27;45575;-54
2023/01/25 04:11:33;;;;;;;;;56.50;46.75;;;;;-146.44;100.00;58906.56;5076167;27;45496;-54
2023/01/25 04:13:58;;;;;;;;;56.25;43.50;;;;;-146.44;100.00;58906.56;5076540;27;45487;-55
2023/01/25 04:16:24;;;;;;;;;54.50;42.75;;;;;-146.44;100.00;58906.56;5075488;27;45532;-53
2023/01/25 04:18:49;;;;;;;;;58.25;47.25;;;;;-146.44;100.00;58906.56;5075533;27;46459;-51
2023/01/25 04:21:14;;;;;;;;;58.00;42.25;;;;;-146.44;100.00;58906.56;5076088;27;45461;-53
2023/01/25 04:23:40;;;;;;;;;56.50;42.00;;;;;-146.44;100.00;58906.56;5076128;27;45520;-54
2023/01/25 04:26:08;;;;;;;;;55.50;45.25;;;;;-146.44;100.00;58906.56;5065784;27;45497;-54
2023/01/25 04:28:34;;;;;;;;;52.00;42.25;;;;;-146.44;100.00;58906.56;5073074;27;46278;-55
2023/01/25 04:31:00;;;;;;;;;54.50;44.75;;;;;-146.44;100.00;58906.56;5072056;27;45505;-55
2023/01/25 04:33:25;;;;;;;;;53.00;44.25;;;;;-146.44;100.00;58906.56;5069599;28;45555;-55
2023/01/25 04:35:51;;;;;;;;;50.50;42.25;;;;;-146.44;100.00;58906.56;5075961;27;45637;-52
2023/01/25 04:38:16;;;;;;;;;57.50;45.50;;;;;-146.44;100.00;58906.56;5074691;27;46418;-55
2023/01/25 04:40:43;;;;;;;;;56.50;45.00;;;;;-146.44;100.00;58906.56;5073987;27;45568;-55
2023/01/25 04:43:11;;;;;;;;;52.00;44.00;;;;;-146.44;100.00;58906.56;5075872;27;45492;-54
2023/01/25 04:45:36;;;;;;;;;48.25;41.75;;;;;-146.44;100.00;58906.56;5075891;27;45465;-55
2023/01/25 04:48:04;;;;;;;;;52.00;42.00;;;;;-146.44;100.00;58906.56;5074621;27;45602;-54
2023/01/25 04:50:30;;;;;;;;;56.25;43.00;;;;;-146.44;100.00;58906.56;5069690;27;45491;-55
2023/01/25 04:52:55;;;;;;;;;50.50;44.50;;;;;-146.44;100.00;58906.56;5070653;27;45448;-54
2023/01/25 04:55:21;;;;;;;;;52.00;42.00;;;;;-146.44;100.00;58906.56;5067722;28;45580;-53
2023/01/25 04:57:50;;;;;;;;;53.00;41.00;;;;;-146.44;100.00;58906.56;5075541;27;45452;-54
2023/01/25 05:00:17;;;;;;;;;43.00;39.50;;;;;-146.44;100.00;58906.56;5075662;27;45536;-55
2023/01/25 05:02:42;;;;;;;;;49.50;39.50;;;;;-146.44;100.00;58906.56;5072445;27;45497;-57
2023/01/25 05:05:08;;;;;;;;;43.50;38.75;;;;;-146.44;100.00;58906.56;5063900;28;45532;-54
2023/01/25 05:07:34;;;;;;;;;42.25;36.50;;;;;-146.44;100.00;58906.56;5074321;27;46286;-56
2023/01/25 05:09:59;;;;;;;;;38.50;36.25;;;;;-146.44;100.00;58906.56;5075361;27;45478;-54
2023/01/25 05:12:24;;;;;;;;;30.50;27.75;;;;;-146.44;100.00;58906.56;5075656;27;45525;-52
2023/01/25 05:14:50;;;;;;;;;38.75;30.50;;;;;-146.44;100.00;58906.56;5071208;27;45658;-53
2023/01/25 05:17:15;;;;;;;;;42.25;35.75;;;;;-146.44;100.00;58906.56;5072837;27;46110;-53
2023/01/25 05:19:41;;;;;;;;;38.25;33.50;;;;;-146.44;100.00;58906.56;5073079;27;45590;-54
2023/01/25 05:22:10;;;;;;;;;36.00;33.25;;;;;-146.44;100.00;58906.56;5075122;27;45441;-51
2023/01/25 05:24:35;;;;;;;;;33.50;30.25;;;;;-146.44;100.00;58906.56;5075239;27;45421;-53
2023/01/25 05:27:04;;;;;;;;;28.25;28.00;;;;;-146.44;100.00;58906.56;5073641;27;46423;-55
2023/01/25 05:29:38;;;;;;;;;35.00;34.75;;;;;-146.44;100.00;58906.56;5075246;27;45507;-55
2023/01/25 05:32:06;;;;;;;;;33.00;29.50;;;;;-146.44;100.00;58906.56;5075026;27;45550;-55
2023/01/25 05:34:33;;;;;;;;;27.00;27.00;;;;;-146.44;100.00;58906.56;5073500;27;45520;-54
2023/01/25 05:36:59;;;;;;;;;29.50;27.00;;;;;-146.44;100.00;58906.56;5074537;27;45422;-56
2023/01/25 05:39:24;;;;;;;;;31.00;27.25;;;;;-146.44;100.00;58906.56;5067889;27;45770;-56
2023/01/25 05:41:50;;;;;;;;;25.25;25.00;;;;;-146.44;100.00;58906.56;5067452;27;45362;-55
2023/01/25 05:44:16;;;;;;;;;29.75;25.75;;;;;-146.44;100.00;58906.56;5074947;27;45578;-55
2023/01/25 05:46:42;;;;;;;;;20.75;13.50;;;;;-146.44;100.00;58906.56;5073864;28;46011;-54
2023/01/25 05:49:08;;;;;;;;;28.25;26.25;;;;;-146.44;100.00;58906.56;5074385;27;45530;-56
2023/01/25 05:51:34;;;;;;;;;32.75;32.75;;;;;-146.44;100.00;58906.56;5067840;27;45622;-51
2023/01/25 05:54:00;;;;;;;;;27.25;25.25;;;;;-146.44;100.00;58906.56;5069325;27;45504;-55
2023/01/25 05:56:26;;;;;;;;;26.25;24.00;;;;;-146.44;100.00;58906.56;5072691;27;46929;-55
2023/01/25 05:58:53;;;;;;;;;24.75;23.75;;;;;-146.44;100.00;58906.56;5074735;27;45632;-55
2023/01/25 06:01:18;;;;;;;;;34.00;26.75;;;;;-146.44;100.00;58906.56;5072506;27;45745;-54
2023/01/25 06:03:45;;;;;;;;;22.75;20.75;;;;;-146.44;100.00;58906.56;5074730;27;45494;-55
2023/01/25 06:06:10;;;;;;;;;25.25;18.50;;;;;-146.44;100.00;58906.56;5074083;27;45782;-55
2023/01/25 06:08:35;;;;;;;;;23.50;22.00;;;;;-146.44;100.00;58906.56;5073351;27;45500;-55
2023/01/25 06:11:09;;;;;;;;;27.75;26.00;;;;;-146.44;100.00;58906.56;5062190;27;45519;-54
2023/01/25 06:13:35;;;;;;;;;26.25;22.50;;;;;-146.44;100.00;58906.56;5072514;28;45474;-55
2023/01/25 06:16:01;;;;;;;;;29.25;24.75;;;;;-146.44;100.00;58906.56;5070551;27;45368;-56
2023/01/25 06:18:28;;;;;;;;;23.50;19.75;;;;;-146.44;100.00;58906.56;5067041;28;45477;-55
2023/01/25 06:20:56;;;;;;;;;19.75;18.50;;;;;-146.44;100.00;58906.56;5064491;27;45521;-55
2023/01/25 06:23:21;;;;;;;;;20.75;19.00;;;;;-146.44;100.00;58906.56;5072999;27;45883;-56
2023/01/25 06:25:46;;;;;;;;;18.50;16.25;;;;;-146.44;100.00;58906.56;5073848;27;45541;-56
2023/01/25 06:28:11;;;;;;;;;21.00;17.50;;;;;-146.44;100.00;58906.56;5073779;27;45512;-54
2023/01/25 06:30:37;;;;;;;;;23.50;19.25;;;;;-146.44;100.00;58906.56;5062646;27;45774;-55
2023/01/25 06:33:02;;;;;;;;;21.50;15.00;;;;;-146.44;100.00;58906.56;5073316;27;45536;-56
2023/01/25 06:35:29;;;;;;;;;21.75;17.75;;;;;-146.44;100.00;58906.56;5072711;27;46670;-54
2023/01/25 06:37:55;;;;;;;;;17.75;17.75;;;;;-146.44;100.00;58906.56;5073922;27;45516;-54
2023/01/25 06:40:21;;;;;;;;;18.75;16.50;;;;;-146.44;100.00;58906.56;5074287;28;45496;-54
2023/01/25 06:42:46;;;;;;;;;18.25;14.50;;;;;-146.44;100.00;58906.56;5061741;27;45560;-55
2023/01/25 06:45:12;;;;;;;;;19.75;19.00;;;;;-146.44;100.00;58906.56;5073841;27;46036;-55
2023/01/25 06:47:37;;;;;;;;;21.00;19.00;;;;;-146.44;100.00;58906.56;5069573;27;45798;-51
2023/01/25 06:50:03;;;;;;;;;16.00;14.00;;;;;-146.44;100.00;58906.56;5073925;27;45458;-54
2023/01/25 06:52:30;;;;;;;;;19.00;19.00;;;;;-146.44;100.00;58906.56;5069728;27;45386;-53
2023/01/25 06:54:56;;;;;;;;;19.00;18.00;;;;;-146.44;100.00;58906.56;5073598;27;45930;-53
2023/01/25 06:57:21;;;;;;;;;20.75;19.00;;;;;-146.44;100.00;58906.56;5070869;27;45461;-56
2023/01/25 06:59:46;;;;;;;;;24.25;22.75;;;;;-146.44;100.00;58906.56;5060710;27;45525;-53
2023/01/25 07:02:14;;;;;;;;;18.00;18.00;;;;;-146.44;100.00;58906.56;5068457;27;45570;-54
2023/01/25 07:04:40;;;;;;;;;37.00;25.00;;;;;-146.44;100.00;58906.56;5073028;27;46036;-54
2023/01/25 07:07:08;;;;;;;;;23.00;19.50;;;;;-146.44;100.00;58906.56;5075188;27;45572;-54
2023/01/25 07:09:35;;;;;;;;;25.00;22.75;;;;;-146.44;100.00;58906.56;5074051;27;45464;-54
2023/01/25 07:12:01;;;;;;;;;30.50;19.50;;;;;-146.44;100.00;58906.56;5073751;27;45492;-54
2023/01/25 07:14:26;;;;;;;;;27.50;25.50;;;;;-146.44;100.00;58906.56;5073826;27;45480;-56
2023/01/25 07:16:52;;;;;;;;;20.25;19.50;;;;;-146.44;100.00;58906.56;5069982;27;45605;-55
2023/01/25 07:19:17;;;;;;;;;21.50;20.25;;;;;-146.44;100.00;58906.56;5073772;27;45497;-53
2023/01/25 07:21:43;;;;;;;;;21.75;20.00;;;;;-146.44;100.00;58906.56;5072959;27;45520;-56
2023/01/25 07:24:13;;;;;;;;;26.75;20.00;;;;;-146.44;100.00;58906.56;5071711;27;54779;-56
2023/01/25 07:26:38;;;;;;;;;22.25;21.25;;;;;-146.44;100.00;58906.56;5071581;28;45551;-54
2023/01/25 07:29:04;;;;;;;;;24.25;22.00;;;;;-146.44;100.00;58906.56;5073232;27;45415;-55
2023/01/25 07:31:29;;;;;;;;;25.00;19.75;;;;;-146.44;100.00;58906.56;5069462;27;45550;-57
2023/01/25 07:33:56;;;;;;;;;20.00;20.00;;;;;-146.44;100.00;58906.56;5057235;27;46218;-55
2023/01/25 07:36:23;;;;;;;;;31.25;27.50;;;;;-146.44;100.00;58906.56;5064918;28;45516;-54
2023/01/25 07:38:57;;;;;;;;;30.25;24.25;;;;;-146.44;100.00;58906.56;5071671;28;45520;-54
2023/01/25 07:41:24;;;;;;;;;22.50;18.25;;;;;-146.44;100.00;58906.56;5062839;27;45512;-56
2023/01/25 07:43:50;;;;;;;;;29.75;26.50;;;;;-146.44;100.00;58906.56;5067280;27;45536;-57
2023/01/25 07:46:16;;;;;;;;;26.75;23.50;;;;;-146.44;100.00;58906.56;5072820;27;45438;-58
2023/01/25 07:48:46;;;;;;;;;25.50;23.75;;;;;-146.44;100.00;58906.56;5072090;27;45728;-58
2023/01/25 07:51:11;;;;;;;;;25.75;23.75;;;;;-146.44;100.00;58906.56;5072896;27;46099;-61
2023/01/25 07:53:41;;;;;;;;;24.00;23.75;;;;;-146.44;100.00;58906.56;5072364;27;45531;-61
2023/01/25 07:56:08;;;;;;;;;30.50;23.75;;;;;-146.44;100.00;58906.56;5073412;27;45496;-60
2023/01/25 07:58:34;;;;;;;;;25.50;24.00;;;;;-146.44;100.00;58906.56;5071980;28;45827;-60
2023/01/25 08:01:07;;;;;;;;;27.75;25.25;;;;;-146.44;100.00;58906.56;5072226;27;45423;-61
2023/01/25 08:03:32;;;;;;;;;27.75;26.50;;;;;-146.44;100.00;58906.56;5072874;27;45585;-60
2023/01/25 08:05:58;;;;;;;;;32.50;26.25;;;;;-146.44;100.00;58906.56;5072225;27;45466;-60
2023/01/25 08:08:23;;;;;;;;;21.25;16.50;;;;;-146.44;100.00;58906.56;5069731;27;45387;-61
2023/01/25 08:10:48;;;;;;;;;21.50;21.25;;;;;-146.44;100.00;58906.56;5062093;27;45506;-61
2023/01/25 08:13:14;;;;;;;;;31.00;24.50;;;;;-146.44;100.00;58906.56;5072035;27;46500;-60
2023/01/25 08:15:39;;;;;;;;;26.00;22.00;;;;;-146.44;100.00;58906.56;5073052;27;45565;-60
2023/01/25 08:18:04;;;;;;;;;29.50;26.00;;;;;-146.44;100.00;58906.56;5072795;27;45533;-61
2023/01/25 08:20:30;;;;;;;;;24.25;23.00;;;;;-146.44;100.00;58906.56;5072882;27;45604;-61
2023/01/25 08:22:55;;;;;;;;;34.00;27.25;;;;;-146.44;100.00;58906.56;5072750;28;46207;-59
2023/01/25 08:25:20;;;;;;;;;27.25;20.75;;;;;-146.44;100.00;58906.56;5072263;28;51549;-61
2023/01/25 08:27:46;;;;;;;;;28.75;23.25;;;;;-146.44;100.00;58906.56;5063863;27;45592;-61
2023/01/25 08:30:11;;;;;;;;;25.00;25.00;;;;;-146.44;100.00;58906.56;5065627;28;45480;-60
2023/01/25 08:32:37;;;;;;;;;27.25;24.00;;;;;-146.44;100.00;58906.56;5072637;27;45487;-60
2023/01/25 08:35:03;;;;;;;;;12.75;12.75;;;;;-146.44;100.00;58906.56;5072700;27;45613;-60
2023/01/25 08:37:28;;;;;;;;;23.00;23.00;;;;;-146.44;100.00;58906.56;5072205;27;45488;-61
2023/01/25 08:39:58;;;;;;;;;33.75;27.00;;;;;-146.44;100.00;58906.56;5072623;27;45580;-59
2023/01/25 08:42:24;;;;;;;;;22.75;21.25;;;;;-146.44;100.00;58906.56;5071048;27;48017;-60
2023/01/25 08:44:49;;;;;;;;;26.00;24.75;;;;;-146.44;100.00;58906.56;5072501;28;45517;-61
2023/01/25 08:47:15;;;;;;;;;19.75;17.75;;;;;-146.44;100.00;58906.56;5070621;27;45579;-61
2023/01/25 08:49:40;;;;;;;;;30.25;27.00;;;;;-146.44;100.00;58906.56;5072502;27;45666;-61
2023/01/25 08:52:06;;;;;;;;;27.00;24.00;;;;;-146.44;100.00;58906.56;5073102;27;46093;-62
2023/01/25 08:54:31;;;;;;;;;29.00;23.50;;;;;-146.44;100.00;58906.56;5075516;27;45477;-61
2023/01/25 08:56:57;;;;;;;;;30.50;27.25;;;;;-146.44;100.00;58906.56;5074793;27;46263;-59
2023/01/25 08:59:22;;;;;;;;;26.50;23.00;;;;;-146.44;100.00;58906.56;5075016;27;45613;-59
2023/01/25 09:01:47;;;;;;;;;28.50;27.75;;;;;-146.44;100.00;58906.56;5075619;27;45463;-59
2023/01/25 09:04:13;;;;;;;;;24.75;20.50;;;;;-146.44;100.00;58906.56;5075648;27;45449;-60
2023/01/25 09:06:38;;;;;;;;;32.25;27.50;;;;;-146.44;100.00;58906.56;5075794;27;45564;-61
2023/01/25 09:09:03;;;;;;;;;28.25;23.00;;;;;-146.44;100.00;58906.56;5066918;27;45453;-61
2023/01/25 09:11:29;;;;;;;;;24.75;22.00;;;;;-146.44;100.00;58906.56;5070237;27;45532;-61
2023/01/25 09:13:55;;;;;;;;;30.25;26.75;;;;;-146.44;100.00;58906.56;5075285;27;45521;-61
2023/01/25 09:16:27;;;;;;;;;34.75;32.00;;;;;-146.44;100.00;58906.56;5075647;27;45435;-59
2023/01/25 09:18:54;;;;;;;;;29.50;24.25;;;;;-146.44;100.00;58906.56;5075708;27;45473;-61
2023/01/25 09:21:20;;;;;;;;;22.75;21.00;;;;;-146.44;100.00;58906.56;5075439;27;46115;-60
2023/01/25 09:23:50;;;;;;;;;29.75;25.25;;;;;-146.44;100.00;58906.56;5070824;27;45449;-60
2023/01/25 09:26:16;;;;;;;;;32.00;26.00;;;;;-146.44;100.00;58906.56;5065048;28;45469;-60
2023/01/25 09:28:45;;;;;;;;;23.75;21.50;;;;;-146.44;100.00;58906.56;5075238;27;45423;-59
2023/01/25 09:31:10;;;;;;;;;42.75;38.25;;;;;-146.44;100.00;58906.56;5073792;27;45659;-60
2023/01/25 09:33:38;;;;;;;;;33.75;30.00;;;;;-146.44;100.00;58906.56;5073402;27;46126;-60
2023/01/25 09:36:04;;;;;;;;;30.50;28.25;;;;;-146.44;100.00;58906.56;5073520;27;45600;-61
2023/01/25 09:38:30;;;;;;;;;32.00;28.50;;;;;-146.44;100.00;58906.56;5075172;27;45437;-60
2023/01/25 09:41:01;;;;;;;;;33.00;27.00;;;;;-146.44;100.00;58906.56;5074787;27;45587;-60
2023/01/25 09:43:54;;;;;;;;;30.25;26.50;;;;;-146.44;100.00;58906.56;5075158;27;45432;-61
2023/01/25 09:46:24;;;;;;;;;34.25;31.00;;;;;-146.44;100.00;58906.56;5062595;27;45454;-59
2023/01/25 09:49:06;;;;;;;;;33.25;26.50;;;;;-146.44;100.00;58906.56;5074958;27;45566;-60
2023/01/25 09:52:04;;;;;;;;;27.75;27.00;;;;;-146.44;100.00;58906.56;5074952;27;45448;-61
2023/01/25 09:54:33;;;;;;;;;32.75;30.00;;;;;-146.44;100.00;58906.56;5074875;27;45367;-60
2023/01/25 09:56:59;;;;;;;;;36.50;30.00;;;;;-146.44;100.00;58906.56;5072723;27;45654;-60
2023/01/25 09:59:29;;;;;;;;;41.75;33.50;;;;;-146.44;100.00;58906.56;5074878;27;45531;-61
2023/01/25 10:02:12;;;;;;;;;27.50;27.00;;;;;-146.44;100.00;58906.56;5075107;28;46100;-60
2023/01/25 10:04:43;;;;;;;;;30.25;28.75;;;;;-146.44;100.00;58906.56;5073572;27;45559;-61
2023/01/25 10:07:48;;;;;;;;;31.75;27.75;;;;;-146.44;100.00;58906.56;5074344;27;45441;-59
2023/01/25 10:10:20;;;;;;;;;31.50;23.25;;;;;-146.44;100.00;58906.56;5059030;27;45693;-61
2023/01/25 10:12:45;;;;;;;;;32.00;25.50;;;;;-146.44;100.00;58906.56;5074686;27;45495;-59
2023/01/25 10:15:25;;;;;;;;;36.00;29.75;;;;;-146.44;100.00;58906.56;5074511;27;45434;-61
2023/01/25 10:18:17;;;;;;;;;32.25;28.25;;;;;-146.44;100.00;58906.56;5075010;27;45545;-60
2023/01/25 10:21:00;;;;;;;;;26.25;23.25;;;;;-146.44;100.00;58906.56;5074961;27;45537;-60
2023/01/25 10:23:41;;;;;;;;;33.75;25.25;;;;;-146.44;100.00;58906.56;5074554;27;46121;-60
2023/01/25 10:26:09;;;;;;;;;24.50;21.75;;;;;-146.44;100.00;58906.56;5073558;27;45562;-61
2023/01/25 10:29:01;;;;;;;;;29.50;22.75;;;;;-146.44;100.00;58906.56;5074483;27;45359;-60
2023/01/25 10:31:49;;;;;;;;;33.75;29.75;;;;;-146.44;100.00;58906.56;5074763;27;45619;-60
2023/01/25 10:34:26;;;;;;;;;29.25;26.75;;;;;-146.44;100.00;58906.56;5074503;27;45537;-60
2023/01/25 10:36:59;;;;;;;;;34.75;29.25;;;;;-146.44;100.00;58906.56;5074522;27;45446;-59
2023/01/25 10:39:24;;;;;;;;;34.75;33.00;;;;;-146.44;100.00;58906.56;5067872;27;45496;-60
2023/01/25 10:41:57;;;;;;;;;41.75;38.25;;;;;-146.44;100.00;58906.56;5066900;27;45583;-60
2023/01/25 10:44:24;;;;;;;;;37.25;31.25;;;;;-146.44;100.00;58906.56;5073977;27;46489;-62
2023/01/25 10:47:14;;;;;;;;;35.00;30.75;;;;;-146.44;100.00;58906.56;5074571;27;45552;-60
2023/01/25 10:49:48;;;;;;;;;35.50;31.00;;;;;-146.44;100.00;58906.56;5061526;28;45531;-61
2023/01/25 10:52:17;;;;;;;;;37.75;30.50;;;;;-146.44;100.00;58906.56;5074238;27;45575;-61
2023/01/25 10:54:43;;;;;;;;;41.75;31.50;;;;;-146.44;100.00;58906.56;5073234;27;45567;-60
2023/01/25 10:57:17;;;;;;;;;38.75;33.00;;;;;-146.44;100.00;58906.56;5074262;27;45624;-61
2023/01/25 10:59:45;;;;;;;;;37.50;36.00;;;;;-146.44;100.00;58906.56;5074356;27;45552;-59